Time;durP1;ratioP1;P1;durP2;ratioP2;P2;SDS_P1;SDS_P2;PMS_P1;PMS_P2;Temp;Humidity;BMP_temperature;BMP_pressure;BME280_temperature;BME280_humidity;BME280_pressure;Samples;Min_cycle;Max_cycle;Signal;HPM_P1;HPM_P2
2022/10/11 00:00:08;;;;;;;10.48;5.55;;;;;;;11.84;100.00;99247.28;4485956;31;20095;-73
2022/10/11 00:02:35;;;;;;;10.52;5.47;;;;;;;11.85;100.00;99243.69;4485981;31;20225;-73
2022/10/11 00:05:03;;;;;;;12.65;5.20;;;;;;;11.78;100.00;99239.94;4485878;31;20538;-73
2022/10/11 00:07:30;;;;;;;6.60;4.55;;;;;;;11.76;100.00;99241.84;4485813;32;20449;-73
2022/10/11 00:09:57;;;;;;;12.23;5.40;;;;;;;11.71;100.00;99234.38;4485675;31;20148;-73
2022/10/11 00:12:24;;;;;;;11.02;5.78;;;;;;;11.67;100.00;99232.16;4485941;31;20114;-73
2022/10/11 00:14:51;;;;;;;6.87;4.82;;;;;;;11.68;100.00;99234.62;4485838;31;20104;-73
2022/10/11 00:17:18;;;;;;;9.38;6.12;;;;;;;11.64;100.00;99237.66;4485946;31;20173;-73
2022/10/11 00:19:45;;;;;;;9.52;5.60;;;;;;;11.63;100.00;99230.78;4485661;31;20490;-73
2022/10/11 00:22:12;;;;;;;9.80;6.50;;;;;;;11.65;100.00;99234.09;4485964;31;20118;-73
2022/10/11 00:24:40;;;;;;;9.75;5.53;;;;;;;11.57;100.00;99232.13;4486012;31;20501;-73
2022/10/11 00:27:07;;;;;;;12.05;6.20;;;;;;;11.53;100.00;99242.03;4485757;31;20100;-73
2022/10/11 00:29:36;;;;;;;20.58;6.10;;;;;;;11.50;100.00;99239.69;4485831;31;20160;-73
2022/10/11 00:32:04;;;;;;;10.20;5.45;;;;;;;11.43;100.00;99235.94;4485766;31;20209;-73
2022/10/11 00:34:31;;;;;;;10.55;5.65;;;;;;;11.43;100.00;99235.94;4485638;31;20530;-73
2022/10/11 00:36:58;;;;;;;9.18;5.97;;;;;;;11.38;100.00;99232.84;4485713;31;20116;-73
2022/10/11 00:39:25;;;;;;;8.95;5.72;;;;;;;11.33;100.00;99232.44;4485711;32;20101;-73
2022/10/11 00:41:52;;;;;;;14.15;5.82;;;;;;;11.25;100.00;99227.84;4485503;31;20096;-73
2022/10/11 00:44:22;;;;;;;10.52;5.78;;;;;;;11.23;100.00;99232.38;4485627;31;20119;-73
2022/10/11 00:47:12;;;;;;;9.85;5.47;;;;;;;11.21;100.00;99225.59;4484864;31;20469;-73
2022/10/11 00:49:42;;;;;;;11.95;5.85;;;;;;;11.16;100.00;99229.44;4484494;32;20096;-73
2022/10/11 00:52:30;;;;;;;9.93;5.75;;;;;;;11.07;100.00;99218.91;4485488;31;20468;-73
2022/10/11 00:55:11;;;;;;;10.77;5.43;;;;;;;11.01;100.00;99223.69;4484263;32;20140;-73
2022/10/11 00:57:43;;;;;;;15.32;6.30;;;;;;;10.98;100.00;99225.75;4484706;32;20168;-73
2022/10/11 01:00:11;;;;;;;12.77;5.70;;;;;;;10.97;100.00;99218.84;4485536;31;20533;-73
2022/10/11 01:02:39;;;;;;;9.88;5.35;;;;;;;11.03;100.00;99220.12;4484010;32;20152;-73
2022/10/11 01:05:09;;;;;;;10.32;5.30;;;;;;;11.01;100.00;99225.50;4484157;32;20161;-73
2022/10/11 01:07:57;;;;;;;10.77;6.30;;;;;;;10.96;100.00;99222.41;4484081;32;20573;-72
2022/10/11 01:10:25;;;;;;;12.88;6.07;;;;;;;10.97;100.00;99214.41;4485490;31;20114;-73
2022/10/11 01:13:18;;;;;;;9.55;5.70;;;;;;;10.98;100.00;99218.72;4471209;32;20536;-73
2022/10/11 01:16:08;;;;;;;8.20;5.75;;;;;;;10.90;100.00;99221.16;4485451;31;20572;-73
2022/10/11 01:19:29;;;;;;;9.68;5.78;;;;;;;10.83;100.00;99220.00;4485408;31;20114;-73
2022/10/11 01:22:04;;;;;;;11.60;6.65;;;;;;;10.84;100.00;99219.03;4408243;32;20124;-73
2022/10/11 01:24:56;;;;;;;11.02;6.20;;;;;;;10.81;100.00;99220.12;4420840;32;20105;-73
2022/10/11 01:27:29;;;;;;;10.95;6.57;;;;;;;10.76;100.00;99216.22;4345541;33;20174;-73
2022/10/11 01:30:04;;;;;;;8.57;5.32;;;;;;;10.82;100.00;99211.31;4345525;33;20551;-73
2022/10/11 01:33:03;;;;;;;11.90;6.80;;;;;;;10.76;100.00;99205.72;4333402;33;20119;-73
2022/10/11 01:36:06;;;;;;;11.27;5.72;;;;;;;10.71;100.00;99198.25;4301289;33;20174;-73
2022/10/11 01:38:54;;;;;;;12.02;6.22;;;;;;;10.71;100.00;99200.87;4258484;33;20118;-73
2022/10/11 01:41:46;;;;;;;11.30;6.70;;;;;;;10.71;100.00;99203.50;4258489;33;20125;-73
2022/10/11 01:44:29;;;;;;;9.20;6.00;;;;;;;10.75;100.00;99193.56;4258712;33;20129;-73
2022/10/11 01:47:10;;;;;;;18.15;5.85;;;;;;;10.73;100.00;99196.31;4258648;33;20203;-73
2022/10/11 01:49:57;;;;;;;17.52;6.60;;;;;;;10.73;100.00;99201.56;4258305;33;20176;-73
2022/10/11 01:52:41;;;;;;;13.57;6.68;;;;;;;10.74;100.00;99198.00;4298812;33;20496;-73
2022/10/11 01:55:37;;;;;;;11.02;6.87;;;;;;;10.72;100.00;99199.91;4318566;33;20154;-73
2022/10/11 01:58:41;;;;;;;13.50;6.45;;;;;;;10.69;100.00;99200.19;4276469;33;20593;-72
2022/10/11 02:01:35;;;;;;;14.00;7.05;;;;;;;10.73;100.00;99198.94;4287125;33;20609;-73
2022/10/11 02:04:32;;;;;;;11.80;5.95;;;;;;;10.77;100.00;99195.13;4298983;33;20116;-73
2022/10/11 02:07:04;;;;;;;10.27;6.05;;;;;;;10.81;100.00;99191.28;4318974;33;20099;-73
2022/10/11 02:09:37;;;;;;;10.35;5.87;;;;;;;10.71;100.00;99195.63;4318080;33;20116;-73
2022/10/11 02:12:08;;;;;;;12.13;6.60;;;;;;;10.70;100.00;99193.97;4354331;32;20149;-73
2022/10/11 02:14:39;;;;;;;14.02;6.43;;;;;;;10.66;100.00;99184.72;4388232;32;20657;-73
2022/10/11 02:17:10;;;;;;;11.63;5.90;;;;;;;10.71;100.00;99184.31;4407786;32;20098;-73
2022/10/11 02:19:41;;;;;;;11.77;6.20;;;;;;;10.66;100.00;99189.94;4415838;32;20524;-73
2022/10/11 02:22:14;;;;;;;11.38;6.15;;;;;;;10.62;100.00;99188.53;4419407;32;20308;-73
2022/10/11 02:24:45;;;;;;;10.73;6.10;;;;;;;10.62;100.00;99196.41;4420406;32;20110;-73
2022/10/11 02:27:13;;;;;;;9.70;6.20;;;;;;;10.61;100.00;99202.59;4407695;32;20105;-73
2022/10/11 02:29:41;;;;;;;14.63;6.35;;;;;;;10.52;100.00;99200.72;4407589;32;20116;-73
2022/10/11 02:32:09;;;;;;;9.60;6.18;;;;;;;10.47;100.00;99196.69;4407644;32;20106;-73
2022/10/11 02:34:46;;;;;;;10.60;6.15;;;;;;;10.49;100.00;99191.31;4424982;32;20113;-73
2022/10/11 02:37:16;;;;;;;13.30;6.80;;;;;;;10.48;100.00;99189.69;4467774;32;20164;-73
2022/10/11 02:39:47;;;;;;;13.75;5.72;;;;;;;10.53;100.00;99194.53;4469092;32;20526;-73
2022/10/11 02:42:25;;;;;;;14.05;5.80;;;;;;;10.52;100.00;99192.87;4467664;32;20522;-73
2022/10/11 02:45:01;;;;;;;9.75;6.00;;;;;;;10.51;100.00;99196.44;4469156;32;20153;-73
2022/10/11 02:47:30;;;;;;;12.57;5.87;;;;;;;10.38;100.00;99202.69;4467598;32;20512;-73
2022/10/11 02:49:58;;;;;;;8.63;6.18;;;;;;;10.32;100.00;99197.09;4468789;32;20122;-73
2022/10/11 02:52:25;;;;;;;13.30;6.53;;;;;;;10.30;100.00;99205.91;4468581;32;20470;-73
2022/10/11 02:54:52;;;;;;;11.93;6.40;;;;;;;10.26;100.00;99208.87;4468839;32;20124;-73
2022/10/11 02:57:20;;;;;;;14.23;6.45;;;;;;;10.25;100.00;99201.97;4468856;32;20596;-72
2022/10/11 02:59:47;;;;;;;16.70;5.53;;;;;;;10.24;100.00;99195.91;4468818;32;20144;-73
2022/10/11 03:02:14;;;;;;;9.77;5.60;;;;;;;10.19;100.00;99203.31;4468650;32;20105;-73
2022/10/11 03:04:41;;;;;;;10.73;6.32;;;;;;;10.18;100.00;99195.59;4468731;32;20157;-73
2022/10/11 03:07:08;;;;;;;12.90;5.95;;;;;;;10.13;100.00;99201.22;4472856;32;20129;-73
2022/10/11 03:09:35;;;;;;;14.02;5.78;;;;;;;10.08;100.00;99196.34;4484188;32;20172;-73
2022/10/11 03:12:02;;;;;;;12.25;5.53;;;;;;;9.99;100.00;99198.84;4486002;31;20557;-73
2022/10/11 03:14:29;;;;;;;10.63;5.97;;;;;;;10.03;100.00;99201.09;4486272;31;20100;-73
2022/10/11 03:16:57;;;;;;;18.50;6.90;;;;;;;10.03;100.00;99192.44;4486077;32;20160;-73
2022/10/11 03:19:44;;;;;;;13.70;6.43;;;;;;;9.96;100.00;99202.53;4486421;31;20510;-73
2022/10/11 03:22:11;;;;;;;17.12;6.55;;;;;;;9.84;100.00;99198.28;4485987;32;20430;-73
2022/10/11 03:24:38;;;;;;;10.20;6.30;;;;;;;9.82;100.00;99201.03;4486083;31;20094;-73
2022/10/11 03:27:05;;;;;;;10.85;6.20;;;;;;;9.85;100.00;99205.19;4486116;31;20104;-73
2022/10/11 03:29:32;;;;;;;15.48;7.00;;;;;;;9.81;100.00;99202.00;4486218;31;20179;-73
2022/10/11 03:31:59;;;;;;;12.00;6.25;;;;;;;9.73;100.00;99207.81;4486128;31;20184;-72
2022/10/11 03:34:26;;;;;;;16.87;7.28;;;;;;;9.64;100.00;99212.94;4486252;31;20089;-72
2022/10/11 03:36:54;;;;;;;16.60;6.62;;;;;;;9.63;100.00;99206.03;4486316;31;20122;-73
2022/10/11 03:39:21;;;;;;;13.65;6.72;;;;;;;9.57;100.00;99216.03;4486473;31;20483;-73
2022/10/11 03:41:48;;;;;;;14.95;7.40;;;;;;;9.52;100.00;99215.56;4485881;31;20168;-73
2022/10/11 03:44:15;;;;;;;16.10;6.68;;;;;;;9.50;100.00;99216.63;4486065;31;20120;-73
2022/10/11 03:46:42;;;;;;;11.10;6.75;;;;;;;9.45;100.00;99222.22;4485896;31;20092;-73
2022/10/11 03:49:10;;;;;;;18.20;7.90;;;;;;;9.46;100.00;99221.25;4486466;31;20214;-72
2022/10/11 03:51:37;;;;;;;12.57;7.18;;;;;;;9.48;100.00;99224.59;4485709;31;20169;-72
2022/10/11 03:54:04;;;;;;;13.35;8.10;;;;;;;9.47;100.00;99222.09;4485920;31;20144;-73
2022/10/11 03:56:31;;;;;;;11.25;7.30;;;;;;;9.52;100.00;99225.19;4485781;31;20097;-72
2022/10/11 03:58:58;;;;;;;14.95;7.72;;;;;;;9.58;100.00;99224.72;4486055;31;20119;-73
2022/10/11 04:01:25;;;;;;;12.48;7.10;;;;;;;9.57;100.00;99231.72;4485749;31;20147;-73
2022/10/11 04:03:56;;;;;;;13.98;7.10;;;;;;;9.53;100.00;99224.25;4485921;32;20108;-72
2022/10/11 04:06:23;;;;;;;15.95;7.68;;;;;;;9.46;100.00;99216.03;4483902;31;20128;-72
2022/10/11 04:08:50;;;;;;;14.32;7.65;;;;;;;9.44;100.00;99227.56;4484570;31;20121;-72
2022/10/11 04:11:17;;;;;;;13.65;7.70;;;;;;;9.47;100.00;99224.72;4485600;31;20100;-73
2022/10/11 04:13:44;;;;;;;19.15;8.25;;;;;;;9.50;100.00;99224.50;4485208;31;20484;-72
2022/10/11 04:16:11;;;;;;;16.73;7.72;;;;;;;9.50;100.00;99221.88;4485964;31;20100;-73
2022/10/11 04:18:39;;;;;;;12.95;7.25;;;;;;;9.49;100.00;99222.81;4485204;31;20115;-72
2022/10/11 04:21:06;;;;;;;15.38;7.22;;;;;;;9.56;100.00;99227.44;4480768;31;20084;-73
2022/10/11 04:23:33;;;;;;;10.60;7.00;;;;;;;9.63;100.00;99225.19;4478712;32;20465;-72
2022/10/11 04:26:05;;;;;;;15.60;7.10;;;;;;;9.60;100.00;99228.06;4485668;31;20169;-73
2022/10/11 04:28:33;;;;;;;14.98;7.30;;;;;;;9.58;100.00;99224.72;4478709;31;20180;-73
2022/10/11 04:31:03;;;;;;;12.10;7.22;;;;;;;9.56;100.00;99224.84;4484358;31;20438;-72
2022/10/11 04:33:30;;;;;;;15.00;8.20;;;;;;;9.54;100.00;99225.91;4482542;31;20136;-73
2022/10/11 04:35:57;;;;;;;17.42;10.35;;;;;;;9.56;100.00;99216.16;4476564;31;20096;-73
2022/10/11 04:38:24;;;;;;;11.05;6.68;;;;;;;9.62;100.00;99222.72;4484322;32;20510;-73
2022/10/11 04:40:51;;;;;;;12.82;6.90;;;;;;;9.65;100.00;99219.84;4476195;31;20096;-73
2022/10/11 04:43:19;;;;;;;17.62;6.70;;;;;;;9.68;100.00;99222.22;4479016;31;20165;-73
2022/10/11 04:45:46;;;;;;;12.27;6.28;;;;;;;9.74;100.00;99219.94;4479831;32;20216;-73
2022/10/11 04:48:16;;;;;;;11.55;6.15;;;;;;;9.79;100.00;99226.59;4477343;31;20502;-73
2022/10/11 04:50:43;;;;;;;11.43;5.93;;;;;;;9.87;100.00;99226.81;4484413;31;20110;-73
2022/10/11 04:53:15;;;;;;;9.73;6.03;;;;;;;9.92;100.00;99228.12;4484091;31;20470;-73
2022/10/11 04:55:42;;;;;;;10.32;6.43;;;;;;;9.94;100.00;99234.06;4478912;32;20437;-73
2022/10/11 04:58:09;;;;;;;10.95;6.97;;;;;;;9.96;100.00;99228.72;4483184;31;20096;-73
2022/10/11 05:00:37;;;;;;;13.02;6.90;;;;;;;9.99;100.00;99231.06;4477355;31;20194;-73
2022/10/11 05:03:04;;;;;;;12.43;6.53;;;;;;;10.02;100.00;99236.09;4477342;32;20754;-73
2022/10/11 05:05:31;;;;;;;16.05;6.00;;;;;;;10.04;100.00;99231.56;4479444;32;20114;-73
2022/10/11 05:07:58;;;;;;;10.80;6.47;;;;;;;10.05;100.00;99228.00;4476712;31;20482;-74
2022/10/11 05:10:25;;;;;;;11.32;6.28;;;;;;;10.06;100.00;99232.25;4474891;31;20690;-75
2022/10/11 05:12:52;;;;;;;12.93;6.35;;;;;;;10.15;100.00;99232.50;4472936;32;20105;-75
2022/10/11 05:15:19;;;;;;;14.32;8.10;;;;;;;10.13;100.00;99230.81;4473936;31;20130;-75
2022/10/11 05:17:46;;;;;;;15.80;7.12;;;;;;;10.18;100.00;99238.31;4471489;31;20119;-75
2022/10/11 05:20:13;;;;;;;12.65;6.53;;;;;;;10.23;100.00;99233.53;4473309;31;20476;-75
2022/10/11 05:22:41;;;;;;;18.37;7.45;;;;;;;10.35;100.00;99236.97;4472654;32;20488;-75
2022/10/11 05:25:08;;;;;;;17.30;6.78;;;;;;;10.51;100.00;99254.06;4481013;31;20088;-74
2022/10/11 05:27:35;;;;;;;15.43;7.50;;;;;;;10.54;100.00;99246.81;4483131;31;20104;-75
2022/10/11 05:30:04;;;;;;;25.40;7.93;;;;;;;10.59;100.00;99244.63;4479575;31;20218;-75
2022/10/11 05:32:31;;;;;;;18.67;8.02;;;;;;;10.68;100.00;99244.84;4483319;31;20143;-76
2022/10/11 05:34:58;;;;;;;14.70;6.47;;;;;;;10.75;100.00;99241.59;4480892;32;20092;-75
2022/10/11 05:37:25;;;;;;;10.13;6.45;;;;;;;10.77;100.00;99255.41;4480865;31;20101;-75
2022/10/11 05:39:52;;;;;;;22.00;7.10;;;;;;;10.78;100.00;99257.06;4484231;31;20172;-75
2022/10/11 05:42:19;;;;;;;12.07;6.53;;;;;;;10.83;100.00;99265.38;4480876;31;20497;-74
2022/10/11 05:44:47;;;;;;;22.27;6.95;;;;;;;10.86;100.00;99258.22;4481840;32;20120;-75
2022/10/11 05:47:14;;;;;;;50.63;9.80;;;;;;;10.92;100.00;99265.59;4477345;31;20783;-76
2022/10/11 05:49:41;;;;;;;27.17;7.90;;;;;;;11.07;100.00;99269.53;4469025;32;20097;-75
2022/10/11 05:52:09;;;;;;;17.83;7.25;;;;;;;11.05;100.00;99268.81;4469421;32;20120;-74
2022/10/11 05:54:36;;;;;;;14.48;7.60;;;;;;;11.00;100.00;99276.25;4476178;32;20116;-75
2022/10/11 05:57:03;;;;;;;15.20;7.57;;;;;;;10.99;100.00;99275.44;4483439;31;20108;-75
2022/10/11 05:59:31;;;;;;;17.02;6.75;;;;;;;11.00;100.00;99271.84;4472180;31;20465;-74
2022/10/11 06:01:58;;;;;;;12.23;7.35;;;;;;;11.04;100.00;99282.91;4470070;32;20168;-72
2022/10/11 06:04:25;;;;;;;19.67;6.70;;;;;;;11.10;100.00;99282.41;4469753;32;20533;-74
2022/10/11 06:06:52;;;;;;;15.10;7.35;;;;;;;11.16;100.00;99281.88;4462779;31;156214;-78
2022/10/11 06:09:19;;;;;;;15.57;7.45;;;;;;;11.22;100.00;99284.94;4472604;31;20093;-76
2022/10/11 06:11:47;;;;;;;16.50;7.93;;;;;;;11.24;100.00;99290.91;4477890;32;20109;-76
2022/10/11 06:14:14;;;;;;;15.10;7.78;;;;;;;11.26;100.00;99281.94;4480110;31;20088;-75
2022/10/11 06:16:41;;;;;;;17.77;8.07;;;;;;;11.27;100.00;99290.66;4480848;31;20126;-74
2022/10/11 06:19:08;;;;;;;25.85;6.78;;;;;;;11.29;100.00;99289.53;4481339;32;20088;-74
2022/10/11 06:21:35;;;;;;;11.80;7.68;;;;;;;11.25;100.00;99292.56;4477432;31;20104;-74
2022/10/11 06:24:03;;;;;;;15.10;7.40;;;;;;;11.23;100.00;99291.87;4478862;31;20469;-74
2022/10/11 06:26:30;;;;;;;15.48;8.45;;;;;;;11.13;100.00;99297.06;4474640;32;20206;-73
2022/10/11 06:28:57;;;;;;;14.77;7.30;;;;;;;11.11;100.00;99293.72;4472538;32;20088;-75
2022/10/11 06:31:25;;;;;;;12.07;7.07;;;;;;;11.26;100.00;99297.66;4484002;31;20499;-74
2022/10/11 06:33:52;;;;;;;14.32;7.00;;;;;;;11.44;100.00;99299.72;4480609;31;20112;-76
2022/10/11 06:36:19;;;;;;;25.12;8.07;;;;;;;11.67;100.00;99300.37;4478940;31;20524;-75
2022/10/11 06:38:46;;;;;;;15.85;8.02;;;;;;;11.79;100.00;99295.88;4473325;31;20123;-76
2022/10/11 06:41:17;;;;;;;13.25;7.62;;;;;;;12.04;100.00;99286.75;4472748;32;20143;-74
2022/10/11 06:43:45;;;;;;;13.93;6.35;;;;;;;12.23;100.00;99297.31;4476419;32;20092;-73
2022/10/11 06:46:12;;;;;;;21.23;6.15;;;;;;;12.46;100.00;99301.50;4480038;31;20139;-73
2022/10/11 06:48:40;;;;;;;13.27;7.22;;;;;;;12.60;100.00;99301.94;4473211;32;20097;-73
2022/10/11 06:51:09;;;;;;;24.77;8.27;;;;;;;12.78;100.00;99309.16;4474079;32;20512;-75
2022/10/11 06:53:36;;;;;;;13.10;7.30;;;;;;;12.99;100.00;99302.91;4481201;31;20104;-74
2022/10/11 06:56:11;;;;;;;11.68;6.82;;;;;;;13.08;100.00;99307.31;4476567;31;20125;-75
2022/10/11 06:58:39;;;;;;;14.55;7.03;;;;;;;13.20;100.00;99316.75;4473420;32;20096;-74
2022/10/11 07:01:09;;;;;;;16.10;7.57;;;;;;;13.26;100.00;99312.69;4469587;32;20135;-73
2022/10/11 07:03:36;;;;;;;13.07;7.62;;;;;;;13.35;100.00;99309.25;4472993;32;20061;-74
2022/10/11 07:06:09;;;;;;;14.90;7.50;;;;;;;13.43;100.00;99313.81;4472400;31;20203;-74
2022/10/11 07:08:37;;;;;;;19.02;9.02;;;;;;;13.51;100.00;99313.94;4473598;32;20477;-75
2022/10/11 07:11:10;;;;;;;16.98;8.82;;;;;;;13.45;99.87;99317.16;4476879;31;20100;-76
2022/10/11 07:13:38;;;;;;;13.35;7.20;;;;;;;13.44;100.00;99318.97;4469897;32;20474;-76
2022/10/11 07:16:08;;;;;;;11.07;7.00;;;;;;;13.41;100.00;99319.22;4475289;32;20567;-74
2022/10/11 07:18:36;;;;;;;13.65;6.90;;;;;;;13.56;99.56;99318.78;4468008;32;20084;-72
2022/10/11 07:21:05;;;;;;;14.07;6.47;;;;;;;13.53;98.87;99316.44;4465769;32;20116;-73
2022/10/11 07:23:33;;;;;;;10.18;6.18;;;;;;;13.44;99.71;99318.09;4476303;32;20610;-74
2022/10/11 07:26:00;;;;;;;11.95;6.25;;;;;;;13.62;100.00;99321.66;4477567;31;20084;-73
2022/10/11 07:28:29;;;;;;;10.43;6.60;;;;;;;13.86;96.33;99322.16;4480207;31;20184;-73
2022/10/11 07:30:57;;;;;;;12.55;7.15;;;;;;;13.99;96.57;99320.03;4468330;31;20481;-74
2022/10/11 07:33:24;;;;;;;12.05;7.47;;;;;;;14.16;96.32;99326.31;4474297;31;20529;-72
2022/10/11 07:35:55;;;;;;;15.13;6.53;;;;;;;14.29;97.81;99321.53;4467921;32;20097;-74
2022/10/11 07:38:22;;;;;;;12.75;7.43;;;;;;;14.56;97.66;99319.84;4465988;32;20118;-76
2022/10/11 07:40:49;;;;;;;16.02;8.52;;;;;;;14.72;95.89;99316.56;4476393;32;20126;-74
2022/10/11 07:43:17;;;;;;;11.52;6.43;;;;;;;14.78;95.14;99323.06;4477727;32;20321;-73
2022/10/11 07:45:47;;;;;;;13.95;7.80;;;;;;;14.90;95.33;99319.22;4475262;31;20159;-76
2022/10/11 07:48:14;;;;;;;11.35;7.03;;;;;;;15.33;95.03;99330.75;4477413;32;20095;-75
2022/10/11 07:50:41;;;;;;;11.70;7.60;;;;;;;15.49;92.51;99324.78;4480696;32;20104;-73
2022/10/11 07:53:08;;;;;;;13.48;7.78;;;;;;;15.68;91.08;99330.81;4472454;31;20449;-74
2022/10/11 07:55:39;;;;;;;12.90;7.62;;;;;;;16.15;90.88;99327.78;4472229;31;20093;-74
2022/10/11 07:58:11;;;;;;;15.77;8.15;;;;;;;16.61;89.08;99324.81;4468259;32;20099;-74
2022/10/11 08:00:41;;;;;;;14.07;8.20;;;;;;;16.62;86.90;99329.06;4470643;32;20093;-75
2022/10/11 08:03:09;;;;;;;12.95;7.95;;;;;;;16.55;87.34;99336.84;4477585;32;20115;-74
2022/10/11 08:05:38;;;;;;;11.25;7.55;;;;;;;16.77;87.45;99331.91;4469000;32;20123;-75
2022/10/11 08:08:05;;;;;;;13.35;7.60;;;;;;;16.88;83.87;99338.75;4479280;32;20100;-73
2022/10/11 08:10:37;;;;;;;30.30;8.25;;;;;;;16.90;84.85;99329.66;4468048;31;20165;-73
2022/10/11 08:13:04;;;;;;;17.83;8.52;;;;;;;16.83;85.75;99331.25;4474723;32;20119;-73
2022/10/11 08:15:32;;;;;;;15.23;8.65;;;;;;;17.08;85.54;99339.25;4470600;32;20131;-73
2022/10/11 08:17:59;;;;;;;14.63;8.90;;;;;;;17.25;83.36;99340.09;4475536;32;20453;-74
2022/10/11 08:20:26;;;;;;;18.55;9.15;;;;;;;17.29;84.90;99341.41;4473997;32;20122;-74
2022/10/11 08:23:15;;;;;;;13.20;7.97;;;;;;;17.18;85.29;99335.47;4468902;31;20096;-74
2022/10/11 08:26:03;;;;;;;16.42;8.77;;;;;;;17.55;82.57;99335.94;4472546;32;20088;-74
2022/10/11 08:28:51;;;;;;;17.23;8.75;;;;;;;17.74;81.91;99338.22;4477837;32;20393;-73
2022/10/11 08:31:37;;;;;;;20.33;8.90;;;;;;;17.36;82.43;99337.91;4475470;32;20122;-74
2022/10/11 08:34:25;;;;;;;16.95;8.85;;;;;;;17.38;83.58;99332.44;4474482;32;20798;-73
2022/10/11 08:37:12;;;;;;;33.70;14.50;;;;;;;17.48;83.87;99337.59;4468568;32;21237;-73
2022/10/11 08:40:00;;;;;;;17.20;9.73;;;;;;;17.64;85.10;99342.88;4476904;32;20084;-74
2022/10/11 08:42:52;;;;;;;18.25;10.60;;;;;;;17.83;84.41;99339.00;4474054;32;20101;-73
2022/10/11 08:45:49;;;;;;;28.00;10.65;;;;;;;17.88;84.90;99347.28;4482696;32;20108;-72
2022/10/11 08:48:48;;;;;;;35.90;12.60;;;;;;;17.65;84.56;99341.88;4476394;32;20513;-72
2022/10/11 08:51:47;;;;;;;21.45;10.27;;;;;;;17.52;86.29;99337.09;4476223;32;20089;-73
2022/10/11 08:54:34;;;;;;;15.05;9.73;;;;;;;17.81;86.32;99340.19;4481645;32;20537;-73
2022/10/11 08:57:04;;;;;;;16.10;10.88;;;;;;;17.64;85.06;99336.72;4483033;31;20132;-73
2022/10/11 08:59:43;;;;;;;14.38;9.15;;;;;;;17.85;85.08;99341.47;4479561;32;20113;-74
2022/10/11 09:02:16;;;;;;;18.70;10.18;;;;;;;17.96;84.70;99338.50;4470253;31;20149;-73
2022/10/11 09:04:49;;;;;;;20.35;10.90;;;;;;;18.14;85.59;99340.06;4467520;32;20520;-73
2022/10/11 09:07:31;;;;;;;17.33;10.10;;;;;;;18.30;83.19;99339.19;4468236;32;20198;-74
2022/10/11 09:10:10;;;;;;;17.80;10.65;;;;;;;18.40;83.18;99339.81;4480348;32;20084;-73
2022/10/11 09:13:00;;;;;;;16.27;10.60;;;;;;;18.24;82.98;99335.41;4477310;31;20084;-73
2022/10/11 09:15:33;;;;;;;24.73;10.98;;;;;;;18.43;82.64;99345.59;4471469;32;20176;-74
2022/10/11 09:18:41;;;;;;;16.70;10.68;;;;;;;18.80;80.52;99340.56;4473890;31;20120;-74
2022/10/11 09:21:29;;;;;;;22.02;9.90;;;;;;;18.70;81.33;99346.13;4476605;31;20088;-73
2022/10/11 09:24:16;;;;;;;18.55;10.60;;;;;;;18.97;80.73;99339.50;4472111;32;20116;-74
2022/10/11 09:27:08;;;;;;;16.33;9.93;;;;;;;19.13;80.26;99338.50;4474114;32;20470;-73
2022/10/11 09:29:47;;;;;;;16.27;10.10;;;;;;;19.46;77.86;99356.84;4472009;32;20831;-74
2022/10/11 09:32:22;;;;;;;17.83;11.50;;;;;;;19.37;76.57;99354.44;4477923;32;20092;-74
2022/10/11 09:34:58;;;;;;;17.05;10.00;;;;;;;19.60;77.83;99357.88;4476840;31;20157;-74
2022/10/11 09:37:28;;;;;;;17.85;10.73;;;;;;;19.57;74.08;99358.22;4467545;32;20397;-74
2022/10/11 09:40:21;;;;;;;22.13;11.32;;;;;;;19.53;76.81;99356.97;4470183;31;20112;-75
2022/10/11 09:42:48;;;;;;;18.05;11.23;;;;;;;19.71;72.85;99359.25;4472943;32;20131;-75
2022/10/11 09:45:18;;;;;;;15.98;11.10;;;;;;;19.49;75.81;99356.47;4474901;32;20721;-74
2022/10/11 09:47:48;;;;;;;17.00;10.82;;;;;;;19.52;73.10;99357.97;4470231;32;20654;-74
2022/10/11 09:50:18;;;;;;;15.32;10.18;;;;;;;20.01;73.87;99359.31;4466304;32;20108;-74
2022/10/11 09:52:55;;;;;;;20.08;11.18;;;;;;;20.09;72.30;99361.88;4467536;31;20100;-74
2022/10/11 09:55:31;;;;;;;20.60;11.35;;;;;;;19.96;70.87;99357.19;4468258;32;20195;-74
2022/10/11 09:57:59;;;;;;;17.70;11.00;;;;;;;19.96;71.26;99357.19;4470096;32;20112;-74
2022/10/11 10:00:31;;;;;;;20.62;12.35;;;;;;;20.21;71.73;99362.22;4473707;31;20748;-74
2022/10/11 10:03:01;;;;;;;20.37;11.73;;;;;;;20.22;70.82;99358.56;4473655;32;20135;-74
2022/10/11 10:05:34;;;;;;;17.98;12.02;;;;;;;20.13;72.58;99355.16;4482453;31;20130;-74
2022/10/11 10:08:08;;;;;;;23.45;12.07;;;;;;;20.21;70.81;99359.56;4473801;32;20089;-73
2022/10/11 10:10:37;;;;;;;22.42;11.82;;;;;;;20.18;69.58;99355.44;4473833;32;20104;-74
2022/10/11 10:13:17;;;;;;;20.95;11.85;;;;;;;20.74;71.87;99348.75;4474419;31;20198;-74
2022/10/11 10:15:47;;;;;;;22.37;11.45;;;;;;;20.54;67.85;99351.16;4479985;32;20109;-75
2022/10/11 10:18:23;;;;;;;20.23;11.98;;;;;;;20.56;68.71;99352.63;4483547;31;20487;-72
2022/10/11 10:20:53;;;;;;;21.35;12.85;;;;;;;20.14;72.45;99348.84;4474575;31;20111;-73
2022/10/11 10:23:30;;;;;;;18.98;12.45;;;;;;;19.89;72.48;99350.12;4480131;32;20115;-75
2022/10/11 10:26:19;;;;;;;20.17;12.13;;;;;;;20.05;73.96;99343.81;4471355;31;20159;-74
2022/10/11 10:29:08;;;;;;;19.90;12.68;;;;;;;20.10;73.74;99346.75;4469480;32;20119;-74
2022/10/11 10:31:39;;;;;;;19.35;12.40;;;;;;;19.90;72.68;99341.97;4469553;32;21242;-76
2022/10/11 10:34:30;;;;;;;42.10;12.93;;;;;;;19.80;72.37;99341.41;4478896;32;20527;-76
2022/10/11 10:37:46;;;;;;;17.95;12.00;;;;;;;19.68;72.28;99344.50;4480789;32;20093;-77
2022/10/11 10:40:24;;;;;;;18.85;12.25;;;;;;;19.57;72.82;99352.91;4428909;32;20163;-74
2022/10/11 10:42:51;;;;;;;24.67;11.77;;;;;;;19.57;73.48;99352.91;4417624;32;20127;-73
2022/10/11 10:45:20;;;;;;;19.52;12.45;;;;;;;19.60;75.49;99357.88;4432008;32;20247;-74
2022/10/11 10:47:53;;;;;;;20.95;11.98;;;;;;;19.74;73.83;99347.44;4420743;32;20097;-73
2022/10/11 10:50:57;;;;;;;19.40;11.77;;;;;;;19.31;74.65;99348.81;4424152;32;20105;-71
2022/10/11 10:53:36;;;;;;;18.05;11.77;;;;;;;19.29;74.86;99344.72;4423636;32;20105;-73
2022/10/11 10:56:10;;;;;;;21.37;10.75;;;;;;;19.49;74.31;99347.69;4407588;32;20544;-73
2022/10/11 10:59:17;;;;;;;17.73;11.02;;;;;;;19.55;75.95;99344.31;4401717;32;20110;-74
2022/10/11 11:02:16;;;;;;;19.42;10.63;;;;;;;19.64;73.80;99340.56;4407462;32;20320;-73
2022/10/11 11:05:24;;;;;;;20.67;11.55;;;;;;;19.44;73.76;99342.91;4412079;32;20109;-72
2022/10/11 11:08:22;;;;;;;18.58;11.93;;;;;;;18.88;75.81;99343.22;4418598;32;20196;-72
2022/10/11 11:11:17;;;;;;;19.95;11.18;;;;;;;19.22;74.69;99339.28;4419962;32;20526;-72
2022/10/11 11:13:55;;;;;;;22.05;11.38;;;;;;;19.42;74.40;99341.44;4427901;32;20153;-74
2022/10/11 11:16:30;;;;;;;17.12;11.70;;;;;;;19.54;74.75;99334.66;4452220;32;20140;-74
2022/10/11 11:19:13;;;;;;;18.40;11.73;;;;;;;19.45;74.55;99338.41;4470756;32;20143;-73
2022/10/11 11:21:48;;;;;;;20.92;12.37;;;;;;;19.73;74.21;99340.47;4478007;31;20102;-74
2022/10/11 11:24:40;;;;;;;21.17;12.07;;;;;;;20.13;72.53;99338.37;4474771;31;20199;-73
2022/10/11 11:27:10;;;;;;;15.75;11.63;;;;;;;20.08;72.39;99332.81;4477244;32;20495;-74
2022/10/11 11:29:46;;;;;;;18.70;11.52;;;;;;;20.30;73.15;99339.84;4467548;32;20563;-73
2022/10/11 11:32:47;;;;;;;24.05;12.52;;;;;;;20.02;74.60;99337.84;4469727;32;20100;-74
2022/10/11 11:35:31;;;;;;;22.67;12.27;;;;;;;20.11;72.15;99332.44;4481016;31;20100;-74
2022/10/11 11:38:03;;;;;;;22.30;12.32;;;;;;;20.56;71.94;99334.00;4470169;32;20568;-73
2022/10/11 11:40:38;;;;;;;25.98;16.65;;;;;;;20.74;72.27;99322.13;4476905;32;20195;-74
2022/10/11 11:43:26;;;;;;;21.17;12.20;;;;;;;20.93;71.39;99328.66;4478934;32;20096;-74
2022/10/11 11:45:57;;;;;;;20.60;11.85;;;;;;;21.28;68.59;99326.91;4480816;32;20204;-73
2022/10/11 11:48:25;;;;;;;62.47;14.40;;;;;;;21.13;68.58;99322.69;4468418;32;20126;-74